Terminal Aerodrome Forecast
Issued by NWS Wilmington, NC

Home | Current Version | Previous Version | Text Only | Print | Product List | Glossary On
Versions: 1 2 3 4 5 6 7 8 9 10 11 12 13 14 15 16
000
FTUS42 KILM 312329
TAFMYR
TAF
KMYR 312329Z 0100/0124 16004KT 6SM BR SCT010 BKN025 BKN040
     FM010700 22004KT 4SM BR SCT005 SCT020
      TEMPO 0109/0111 1SM BR BKN004
     FM011300 02004KT P6SM SCT015 BKN040
     FM011600 17008KT P6SM FEW050 SCT250
      AMD LTD TO CLD VIS AND WIND 0104/0111=

USA.gov is the U.S. government's official web portal to all federal, state and local government web resources and services.